createdAt,value
2019-05-15T00:04:53.900Z,1.50
2019-05-15T00:09:58.605Z,1.43
2019-05-15T00:15:02.117Z,2.13
2019-05-15T00:20:05.848Z,1.40
2019-05-15T00:25:09.559Z,1.20
2019-05-15T00:30:12.979Z,1.37
2019-05-15T00:35:18.232Z,0.90
2019-05-15T00:40:21.229Z,1.17
2019-05-15T00:45:24.517Z,1.20
2019-05-15T00:50:28.737Z,1.97
2019-05-15T00:55:32.103Z,1.50
2019-05-15T01:00:43.553Z,0.90
2019-05-15T01:05:48.044Z,0.83
2019-05-15T01:10:51.516Z,1.40
2019-05-15T01:15:54.796Z,0.77
2019-05-15T01:20:58.702Z,1.30
2019-05-15T01:26:02.166Z,1.50
2019-05-15T01:31:05.450Z,0.90
2019-05-15T01:36:08.786Z,1.70
2019-05-15T01:41:12.128Z,1.10
2019-05-15T01:46:15.408Z,1.00
2019-05-15T01:51:18.698Z,1.30
2019-05-15T01:56:21.998Z,1.07
2019-05-15T02:01:25.332Z,1.50
2019-05-15T02:06:28.688Z,1.70
2019-05-15T02:11:31.927Z,1.57
2019-05-15T02:16:35.228Z,2.13
2019-05-15T02:21:38.514Z,1.33
2019-05-15T02:26:41.796Z,0.97
2019-05-15T02:31:45.078Z,1.33
2019-05-15T02:36:49.297Z,1.63
2019-05-15T02:41:52.939Z,1.40
2019-05-15T02:46:58.821Z,1.23
2019-05-15T02:52:01.235Z,1.10
2019-05-15T02:57:04.521Z,1.40
2019-05-15T03:02:10.177Z,1.23
2019-05-15T03:07:12.818Z,1.50
2019-05-15T03:12:19.387Z,1.57
2019-05-15T03:17:22.316Z,1.23
2019-05-15T03:22:25.617Z,1.50
2019-05-15T03:27:30.429Z,1.67
2019-05-15T03:32:42.767Z,1.40
2019-05-15T03:37:39.964Z,1.40
2019-05-15T03:42:43.448Z,1.77
2019-05-15T03:47:49.190Z,1.33
2019-05-15T03:52:52.309Z,0.90
2019-05-15T03:58:02.366Z,1.00
2019-05-15T04:03:05.652Z,1.57
2019-05-15T04:08:10.851Z,1.47
2019-05-15T04:13:13.941Z,1.13
2019-05-15T04:18:19.848Z,1.43
2019-05-15T04:23:23.184Z,0.70
2019-05-15T04:28:29.308Z,1.00
2019-05-15T04:33:32.426Z,1.03
2019-05-15T04:38:39.012Z,1.60
2019-05-15T04:43:45.148Z,1.10
2019-05-15T04:48:46.076Z,1.03
2019-05-15T04:53:50.410Z,1.00
2019-05-15T04:58:53.925Z,0.83
2019-05-15T05:03:58.934Z,1.20
2019-05-15T05:09:02.589Z,1.20
2019-05-15T05:14:08.400Z,0.90
2019-05-15T05:19:10.942Z,1.13
2019-05-15T05:24:14.238Z,1.40
2019-05-15T05:29:17.849Z,1.20
2019-05-15T05:34:21.202Z,1.07
2019-05-15T05:39:24.468Z,1.40
2019-05-15T05:44:29.112Z,1.27
2019-05-15T05:49:32.629Z,1.20
2019-05-15T05:54:38.112Z,1.30
2019-05-15T05:59:40.972Z,1.37
2019-05-15T06:04:44.324Z,1.23
2019-05-15T06:09:48.648Z,1.47
2019-05-15T06:14:52.142Z,1.63
2019-05-15T06:19:55.508Z,1.50
2019-05-15T06:24:58.744Z,0.97
2019-05-15T06:30:02.031Z,1.50
2019-05-15T06:35:08.727Z,1.20
2019-05-15T06:40:11.656Z,1.40
2019-05-15T06:45:15.123Z,1.17
2019-05-15T06:50:38.048Z,1.07
2019-05-15T06:55:40.740Z,1.67
2019-05-15T07:00:44.071Z,1.20
2019-05-15T07:05:50.308Z,1.37
2019-05-15T07:10:53.325Z,1.13
2019-05-15T07:15:58.524Z,1.73
2019-05-15T07:21:01.628Z,1.90
2019-05-15T07:26:04.921Z,1.57
2019-05-15T07:31:11.653Z,2.43
2019-05-15T07:36:13.268Z,2.10
2019-05-15T07:41:18.538Z,1.57
2019-05-15T07:46:21.576Z,1.30
2019-05-15T07:51:24.885Z,1.97
2019-05-15T07:56:28.963Z,2.23
2019-05-15T08:01:32.334Z,1.67
2019-05-15T08:06:38.596Z,1.30
2019-05-15T08:11:40.648Z,1.37
2019-05-15T08:16:43.945Z,1.40
2019-05-15T08:21:51.621Z,1.80
2019-05-15T08:26:52.267Z,3.57
2019-05-15T08:31:55.585Z,2.43
2019-05-15T08:36:59.168Z,1.47
2019-05-15T08:42:02.522Z,1.90
2019-05-15T08:47:07.727Z,2.00
2019-05-15T08:52:11.145Z,1.63
2019-05-15T08:57:14.794Z,1.87
2019-05-15T09:02:18.647Z,1.97
2019-05-15T09:07:22.896Z,1.90
2019-05-15T09:12:26.242Z,2.00
2019-05-15T09:17:29.539Z,2.20
2019-05-15T09:22:32.931Z,1.40
2019-05-15T09:27:38.333Z,1.13
2019-05-15T09:32:41.536Z,1.70
2019-05-15T09:37:44.827Z,1.57
2019-05-15T09:42:48.842Z,2.17
2019-05-15T09:47:52.116Z,2.13
2019-05-15T09:52:55.421Z,2.22
2019-05-15T09:57:59.137Z,3.47
2019-05-15T10:03:02.472Z,3.90
2019-05-15T10:08:08.456Z,2.37
2019-05-15T10:13:10.930Z,2.30
2019-05-15T10:18:14.231Z,2.37
2019-05-15T10:23:19.661Z,1.90
2019-05-15T10:28:22.542Z,2.08
2019-05-15T10:33:25.845Z,2.30
2019-05-15T10:38:29.117Z,1.53
2019-05-15T10:43:32.512Z,2.10
2019-05-15T10:48:38.395Z,2.10
2019-05-15T10:53:40.867Z,2.00
2019-05-15T10:58:44.212Z,2.50
2019-05-15T11:03:49.524Z,2.58
2019-05-15T11:08:52.631Z,1.82
2019-05-15T11:14:00.235Z,1.70
2019-05-15T11:19:00.935Z,1.60
2019-05-15T11:24:04.227Z,1.60
2019-05-15T11:29:09.708Z,1.50
2019-05-15T11:34:12.543Z,1.52
2019-05-15T11:39:18.172Z,1.87
2019-05-15T11:44:20.841Z,1.37
2019-05-15T11:49:24.145Z,1.10
2019-05-15T11:54:28.265Z,1.30
2019-05-15T11:59:31.742Z,1.20
2019-05-15T12:04:35.023Z,1.10
2019-05-15T12:09:38.856Z,1.20
2019-05-15T12:14:42.178Z,1.43
2019-05-15T12:19:54.850Z,1.07
2019-05-15T12:24:50.484Z,1.30
2019-05-15T12:29:53.765Z,1.50
2019-05-15T12:35:00.011Z,1.37
2019-05-15T13:00:24.829Z,1.50
2019-05-15T13:05:29.086Z,1.20
2019-05-15T13:10:33.139Z,1.57
2019-05-15T13:15:40.435Z,1.20
2019-05-15T13:20:41.437Z,1.40
2019-05-15T13:25:44.733Z,1.40
2019-05-15T13:30:48.946Z,1.27
2019-05-15T13:35:52.501Z,1.07
2019-05-15T13:40:55.795Z,1.20
2019-05-15T13:45:59.664Z,1.40
2019-05-15T13:51:02.962Z,1.30
2019-05-15T13:56:06.317Z,1.70
2019-05-15T14:01:09.629Z,1.43
2019-05-15T14:06:12.896Z,1.30
2019-05-15T14:11:21.192Z,1.83
2019-05-15T14:16:21.201Z,1.40
2019-05-15T14:21:24.483Z,2.00
2019-05-15T14:26:27.792Z,1.30
2019-05-15T14:31:31.085Z,1.30
2019-05-15T14:36:34.385Z,1.30
2019-05-15T14:41:38.235Z,1.43
2019-05-15T14:46:41.655Z,1.67
2019-05-15T14:51:44.950Z,1.63
2019-05-15T14:56:48.726Z,1.60
2019-05-15T15:01:52.022Z,1.23
2019-05-15T15:06:57.624Z,1.13
2019-05-15T15:12:00.502Z,1.57
2019-05-15T15:17:03.798Z,1.40
2019-05-15T15:22:08.739Z,1.67
2019-05-15T15:27:12.178Z,1.33
2019-05-15T15:32:15.471Z,1.50
2019-05-15T15:37:18.760Z,1.30
2019-05-15T15:42:22.041Z,1.50
2019-05-15T15:47:25.344Z,2.30
2019-05-15T15:52:29.090Z,1.17
2019-05-15T15:57:32.495Z,1.00
2019-05-15T16:02:35.860Z,1.37
2019-05-15T16:07:39.261Z,1.37
2019-05-15T16:12:42.583Z,1.20
2019-05-15T16:17:45.877Z,1.37
2019-05-15T16:22:49.946Z,0.93
2019-05-15T16:27:53.502Z,0.97
2019-05-15T16:32:58.479Z,1.10
2019-05-15T16:38:01.956Z,1.57
2019-05-15T16:43:05.245Z,1.00
2019-05-15T16:48:09.423Z,1.30
2019-05-15T16:53:12.873Z,1.20
2019-05-15T16:58:19.103Z,1.50
2019-05-15T17:03:22.221Z,1.00
2019-05-15T17:08:25.506Z,1.43
2019-05-15T17:13:29.040Z,1.60
2019-05-15T17:18:32.331Z,1.07
2019-05-15T17:23:35.625Z,1.30
2019-05-15T17:28:38.921Z,1.30
2019-05-15T17:33:42.247Z,1.70
2019-05-15T17:38:45.604Z,1.70
2019-05-15T17:43:48.895Z,2.00
2019-05-15T17:48:55.697Z,1.50
2019-05-15T17:53:58.290Z,1.90
2019-05-15T17:59:01.546Z,1.93
2019-05-15T18:04:04.852Z,1.50
2019-05-15T18:09:08.679Z,1.60
2019-05-15T18:14:12.118Z,1.50
2019-05-15T18:19:15.595Z,1.43
2019-05-15T18:24:18.884Z,1.00
2019-05-15T18:29:22.187Z,1.70
2019-05-15T18:34:25.463Z,1.70
2019-05-15T18:39:28.756Z,1.90
2019-05-15T18:44:33.021Z,1.70
2019-05-15T18:49:38.037Z,1.77
2019-05-15T18:54:41.313Z,1.80
2019-05-15T18:59:44.773Z,2.63
2019-05-15T19:04:49.025Z,1.70
2019-05-15T19:09:52.489Z,1.90
2019-05-15T19:14:58.451Z,1.50
2019-05-15T19:20:00.787Z,2.00
2019-05-15T19:25:05.825Z,1.80
2019-05-15T19:30:10.162Z,1.70
2019-05-15T19:35:13.720Z,1.37
2019-05-15T19:40:18.752Z,1.93
2019-05-15T19:45:22.143Z,1.60
2019-05-15T19:50:25.428Z,2.00
2019-05-15T19:55:28.818Z,1.40
2019-05-15T20:00:32.103Z,1.90
2019-05-15T20:05:38.102Z,2.20
2019-05-15T20:10:41.314Z,1.57
2019-05-15T20:15:44.605Z,2.00
2019-05-15T20:20:48.049Z,1.85
2019-05-15T20:25:51.334Z,2.23
2019-05-15T20:30:54.617Z,2.10
2019-05-15T20:35:59.065Z,2.13
2019-05-15T20:41:02.309Z,2.47
2019-05-15T20:46:05.585Z,2.47
2019-05-15T20:51:08.879Z,3.17
2019-05-15T20:56:12.177Z,2.42
2019-05-15T21:01:18.072Z,2.40
2019-05-15T21:06:20.752Z,2.80
2019-05-15T21:11:24.055Z,2.67
2019-05-15T21:16:27.938Z,2.93
2019-05-15T21:21:31.319Z,2.97
2019-05-15T21:26:34.613Z,3.20
2019-05-15T21:31:39.921Z,2.63
2019-05-15T21:36:43.107Z,3.03
2019-05-15T21:41:48.722Z,3.00
2019-05-15T21:46:51.431Z,2.60
2019-05-15T21:51:54.737Z,3.17
2019-05-15T21:57:12.887Z,3.27
2019-05-15T22:02:03.187Z,3.53
2019-05-15T22:07:09.048Z,2.80
2019-05-15T22:12:11.911Z,2.33
2019-05-15T22:17:15.193Z,3.60
2019-05-15T22:22:18.476Z,3.40
2019-05-15T22:27:21.770Z,3.27
2019-05-15T22:32:25.064Z,3.57
2019-05-15T22:37:29.456Z,3.87
2019-05-15T22:42:32.754Z,3.00
2019-05-15T22:47:36.871Z,2.67
2019-05-15T22:52:41.076Z,3.70
2019-05-15T22:57:44.528Z,3.97
2019-05-15T23:02:48.900Z,3.63
2019-05-15T23:07:52.283Z,4.07
2019-05-15T23:12:57.687Z,3.77
2019-05-15T23:18:00.599Z,3.40
2019-05-15T23:23:03.969Z,3.10
2019-05-15T23:28:08.583Z,3.17
2019-05-15T23:33:11.868Z,3.40
2019-05-15T23:38:15.153Z,3.13
2019-05-15T23:43:19.053Z,3.50
2019-05-15T23:48:22.386Z,3.00
2019-05-15T23:53:25.743Z,4.05
2019-05-15T23:58:29.444Z,3.37
